createdAt,value
2023-04-15T00:01:10.184Z,-0.81
2023-04-15T00:03:37.440Z,-0.81
2023-04-15T00:06:04.692Z,-0.83
2023-04-15T00:08:31.644Z,-0.87
2023-04-15T00:11:02.869Z,-0.88
2023-04-15T00:13:30.154Z,-0.91
2023-04-15T00:15:57.028Z,-0.94
2023-04-15T00:18:24.899Z,-0.97
2023-04-15T00:20:52.705Z,-0.98
2023-04-15T00:23:19.714Z,-0.98
2023-04-15T00:25:47.039Z,-0.99
2023-04-15T00:28:14.216Z,-0.99
2023-04-15T00:30:41.860Z,-1.01
2023-04-15T00:33:09.168Z,-1.02
2023-04-15T00:35:37.497Z,-1.04
2023-04-15T00:38:05.518Z,-1.09
2023-04-15T00:40:32.435Z,-1.15
2023-04-15T00:42:59.526Z,-1.17
2023-04-15T00:45:27.583Z,-1.20
2023-04-15T00:47:58.584Z,-1.21
2023-04-15T00:50:25.574Z,-1.15
2023-04-15T00:52:52.712Z,-1.02
2023-04-15T00:55:19.692Z,-0.96
2023-04-15T00:57:46.844Z,-1.05
2023-04-15T01:00:13.962Z,-1.04
2023-04-15T01:02:41.527Z,-0.88
2023-04-15T01:05:09.486Z,-0.87
2023-04-15T01:07:36.821Z,-0.88
2023-04-15T01:10:04.718Z,-0.85
2023-04-15T01:12:32.624Z,-0.93
2023-04-15T01:14:59.724Z,-0.88
2023-04-15T01:17:26.710Z,-0.85
2023-04-15T01:19:53.608Z,-0.85
2023-04-15T01:22:21.176Z,-0.83
2023-04-15T01:24:56.171Z,-0.82
2023-04-15T01:27:23.152Z,-0.90
2023-04-15T01:29:50.086Z,-0.88
2023-04-15T01:32:17.260Z,-0.89
2023-04-15T01:35:03.019Z,-1.00
2023-04-15T01:37:48.450Z,-1.13
2023-04-15T01:40:17.559Z,-1.23
2023-04-15T01:42:45.772Z,-1.28
2023-04-15T01:45:14.171Z,-1.39
2023-04-15T01:47:42.556Z,-1.51
2023-04-15T01:50:11.521Z,-1.58
2023-04-15T01:52:39.668Z,-1.68
2023-04-15T01:55:08.666Z,-1.70
2023-04-15T01:57:37.166Z,-1.68
2023-04-15T02:00:07.729Z,-1.69
2023-04-15T02:02:44.931Z,-1.71
2023-04-15T02:05:13.256Z,-1.60
2023-04-15T02:07:42.600Z,-1.45
2023-04-15T02:10:11.748Z,-1.41
2023-04-15T02:12:40.690Z,-1.43
2023-04-15T02:15:10.184Z,-1.42
2023-04-15T02:17:38.443Z,-1.43
2023-04-15T02:20:08.784Z,-1.37
2023-04-15T02:22:37.280Z,-1.33
2023-04-15T02:25:06.262Z,-1.36
2023-04-15T02:27:34.392Z,-1.46
2023-04-15T02:30:03.290Z,-1.54
2023-04-15T02:32:31.667Z,-1.56
2023-04-15T02:35:04.307Z,-1.55
2023-04-15T02:37:33.014Z,-1.49
2023-04-15T02:40:01.598Z,-1.44
2023-04-15T02:42:30.454Z,-1.49
2023-04-15T02:45:01.750Z,-1.55
2023-04-15T02:47:34.911Z,-1.53
2023-04-15T02:50:09.588Z,-1.42
2023-04-15T02:52:38.860Z,-1.33
2023-04-15T02:55:08.288Z,-1.33
2023-04-15T02:57:38.956Z,-1.32
2023-04-15T03:00:11.625Z,-1.26
2023-04-15T03:02:43.142Z,-1.26
2023-04-15T03:05:12.791Z,-1.26
2023-04-15T03:07:44.124Z,-1.24
2023-04-15T03:10:12.997Z,-1.21
2023-04-15T03:12:41.686Z,-1.23
2023-04-15T03:15:13.242Z,-1.30
2023-04-15T03:17:46.362Z,-1.21
2023-04-15T03:20:14.681Z,-1.10
2023-04-15T03:22:42.926Z,-1.13
2023-04-15T03:25:11.482Z,-1.11
2023-04-15T03:27:39.680Z,-1.10
2023-04-15T03:30:09.056Z,-1.13
2023-04-15T03:32:39.704Z,-1.20
2023-04-15T03:35:09.710Z,-1.21
2023-04-15T03:37:37.954Z,-1.12
2023-04-15T03:40:06.829Z,-1.08
2023-04-15T03:42:34.915Z,-1.07
2023-04-15T03:45:03.634Z,-0.98
2023-04-15T03:47:32.133Z,-0.91
2023-04-15T03:50:00.497Z,-0.87
2023-04-15T03:52:28.725Z,-0.81
2023-04-15T03:54:57.062Z,-0.82
2023-04-15T03:57:25.630Z,-0.71
2023-04-15T03:59:53.931Z,-0.64
2023-04-15T04:02:23.256Z,-0.61
2023-04-15T04:04:51.940Z,-0.54
2023-04-15T04:07:20.398Z,-0.49
2023-04-15T04:09:48.501Z,-0.35
2023-04-15T04:12:16.652Z,-0.24
2023-04-15T04:14:44.929Z,-0.13
2023-04-15T04:17:13.286Z,0.01
2023-04-15T04:19:41.614Z,0.03
2023-04-15T04:22:09.839Z,0.10
2023-04-15T04:24:38.063Z,0.18
2023-04-15T04:27:06.314Z,0.26
2023-04-15T04:29:34.537Z,0.35
2023-04-15T04:32:02.741Z,0.43
2023-04-15T04:34:31.260Z,0.51
2023-04-15T04:36:59.547Z,0.54
2023-04-15T04:39:27.805Z,0.63
2023-04-15T04:41:56.140Z,0.67
2023-04-15T04:44:24.344Z,0.76
2023-04-15T04:46:52.620Z,0.88
2023-04-15T04:49:20.934Z,0.96
2023-04-15T04:51:49.129Z,1.00
2023-04-15T04:54:17.672Z,1.07
2023-04-15T04:56:45.859Z,1.17
2023-04-15T04:59:14.171Z,1.20
2023-04-15T05:01:42.851Z,1.24
2023-04-15T05:04:11.580Z,1.29
2023-04-15T05:06:39.921Z,1.27
2023-04-15T05:09:08.118Z,1.32
2023-04-15T05:11:36.602Z,1.34
2023-04-15T05:14:04.734Z,1.35
2023-04-15T05:16:32.988Z,1.36
2023-04-15T05:19:01.315Z,1.33
2023-04-15T05:21:29.723Z,1.29
2023-04-15T05:23:57.802Z,1.36
2023-04-15T05:26:27.606Z,1.46
2023-04-15T05:28:55.796Z,1.56
2023-04-15T05:31:24.067Z,1.65
2023-04-15T05:33:52.233Z,1.79
2023-04-15T05:36:20.326Z,1.85
2023-04-15T05:38:48.481Z,1.93
2023-04-15T05:41:19.601Z,1.98
2023-04-15T05:43:48.142Z,2.01
2023-04-15T05:46:16.660Z,2.09
2023-04-15T05:48:45.001Z,2.15
2023-04-15T05:51:13.162Z,2.27
2023-04-15T05:53:41.783Z,2.35
2023-04-15T05:56:09.916Z,2.44
2023-04-15T05:58:38.144Z,2.58
2023-04-15T06:01:06.511Z,2.71
2023-04-15T06:03:34.770Z,2.76
2023-04-15T06:06:03.692Z,2.84
2023-04-15T06:08:31.882Z,2.91
2023-04-15T06:11:00.540Z,2.87
2023-04-15T06:13:28.781Z,2.90
2023-04-15T06:15:56.889Z,2.94
2023-04-15T06:18:25.000Z,3.05
2023-04-15T06:20:53.220Z,3.22
2023-04-15T06:23:21.561Z,3.35
2023-04-15T06:25:49.659Z,3.48
2023-04-15T06:28:17.900Z,3.57
2023-04-15T06:30:46.154Z,3.76
2023-04-15T06:33:14.385Z,3.88
2023-04-15T06:35:42.529Z,3.97
2023-04-15T06:38:10.680Z,3.97
2023-04-15T06:40:38.885Z,4.00
2023-04-15T06:43:08.109Z,4.05
2023-04-15T06:45:36.346Z,4.12
2023-04-15T06:48:04.840Z,4.17
2023-04-15T06:50:33.163Z,4.21
2023-04-15T06:53:01.298Z,4.23
2023-04-15T06:55:29.596Z,4.21
2023-04-15T06:57:57.815Z,4.22
2023-04-15T07:00:26.295Z,4.25
2023-04-15T07:02:55.440Z,4.25
2023-04-15T07:05:23.684Z,4.15
2023-04-15T07:07:51.898Z,4.12
2023-04-15T07:10:20.506Z,4.23
2023-04-15T07:12:48.963Z,4.28
2023-04-15T07:15:17.272Z,4.34
2023-04-15T07:17:45.666Z,4.32
2023-04-15T07:20:14.001Z,4.42
2023-04-15T07:22:42.307Z,4.52
2023-04-15T07:25:10.454Z,4.53
2023-04-15T07:27:38.621Z,4.59
2023-04-15T07:30:07.536Z,4.66
2023-04-15T07:32:36.095Z,4.75
2023-04-15T07:35:04.637Z,4.87
2023-04-15T07:37:31.626Z,4.88
2023-04-15T07:39:59.891Z,4.91
2023-04-15T07:42:29.356Z,4.94
2023-04-15T07:44:57.758Z,4.97
2023-04-15T07:47:25.880Z,5.04
2023-04-15T07:49:54.042Z,5.10
2023-04-15T07:52:22.318Z,5.13
2023-04-15T07:54:50.526Z,5.15
2023-04-15T07:57:18.889Z,5.26
2023-04-15T07:59:47.318Z,5.34
2023-04-15T08:02:15.698Z,5.46
2023-04-15T08:04:44.418Z,5.63
2023-04-15T08:07:12.701Z,5.68
2023-04-15T08:09:40.894Z,5.81
2023-04-15T08:12:12.466Z,5.86
2023-04-15T08:14:40.766Z,5.99
2023-04-15T08:17:10.443Z,6.10
2023-04-15T08:19:38.711Z,6.16
2023-04-15T08:22:06.865Z,6.23
2023-04-15T08:24:44.349Z,6.31
2023-04-15T08:27:12.872Z,6.38
2023-04-15T08:29:40.944Z,6.41
2023-04-15T08:32:09.622Z,6.39
2023-04-15T08:34:38.097Z,6.41
2023-04-15T08:37:07.065Z,6.38
2023-04-15T08:39:35.287Z,6.42
2023-04-15T08:42:05.712Z,6.46
2023-04-15T08:44:34.848Z,6.51
2023-04-15T08:47:03.377Z,6.55
2023-04-15T08:49:32.599Z,6.64
2023-04-15T08:52:02.834Z,6.78
2023-04-15T08:54:31.140Z,6.86
2023-04-15T08:56:59.622Z,6.94
2023-04-15T08:59:27.939Z,7.05
2023-04-15T09:01:56.747Z,7.22
2023-04-15T09:04:24.864Z,7.27
2023-04-15T09:06:53.215Z,7.40
2023-04-15T09:09:21.898Z,7.52
2023-04-15T09:11:51.537Z,7.59
2023-04-15T09:14:19.683Z,7.60
2023-04-15T09:17:04.380Z,7.74
2023-04-15T09:19:34.404Z,7.85
2023-04-15T09:22:02.731Z,8.02
2023-04-15T09:24:37.576Z,8.14
2023-04-15T09:27:06.214Z,8.21
2023-04-15T09:29:34.575Z,8.25
2023-04-15T09:32:13.228Z,8.36
2023-04-15T09:34:41.474Z,8.38
2023-04-15T09:37:11.046Z,8.53
2023-04-15T09:39:50.100Z,8.62
2023-04-15T09:42:24.534Z,8.63
2023-04-15T09:44:56.044Z,8.87
2023-04-15T09:47:31.671Z,9.00
2023-04-15T09:50:01.019Z,9.10
2023-04-15T09:52:29.478Z,9.13
2023-04-15T09:54:58.907Z,9.30
2023-04-15T09:57:36.007Z,9.36
2023-04-15T10:00:05.497Z,9.47
2023-04-15T10:02:38.179Z,9.56
2023-04-15T10:05:07.357Z,9.56
2023-04-15T10:07:35.990Z,9.55
2023-04-15T10:10:05.450Z,9.65
2023-04-15T10:12:33.809Z,9.79
2023-04-15T10:15:05.188Z,9.85
2023-04-15T10:17:35.426Z,9.91
2023-04-15T10:20:05.215Z,10.02
2023-04-15T10:22:33.619Z,10.17
2023-04-15T10:25:02.505Z,10.23
2023-04-15T10:27:30.703Z,10.40
2023-04-15T10:29:58.805Z,10.37
2023-04-15T10:32:27.199Z,10.35
2023-04-15T10:34:55.425Z,10.39
2023-04-15T10:37:36.063Z,10.49
2023-04-15T10:40:24.727Z,10.53
2023-04-15T10:42:54.067Z,10.47
2023-04-15T10:45:22.327Z,10.40
2023-04-15T10:47:57.565Z,10.41
2023-04-15T10:50:26.748Z,10.35
2023-04-15T10:52:54.950Z,10.41
2023-04-15T10:55:26.973Z,10.46
2023-04-15T10:57:56.346Z,10.33
2023-04-15T11:00:31.848Z,10.37
2023-04-15T11:03:00.829Z,10.35
2023-04-15T11:05:41.570Z,10.46
2023-04-15T11:08:10.419Z,10.45
2023-04-15T11:10:38.378Z,10.43
2023-04-15T11:13:18.379Z,10.29
2023-04-15T11:15:47.296Z,10.28
2023-04-15T11:18:20.334Z,10.43
2023-04-15T11:20:52.722Z,10.55
2023-04-15T11:23:31.651Z,10.52
2023-04-15T11:26:01.119Z,10.44
2023-04-15T11:28:30.952Z,10.45
2023-04-15T11:31:00.879Z,10.31
2023-04-15T11:33:29.177Z,10.18
2023-04-15T11:35:57.489Z,10.21
2023-04-15T11:38:25.715Z,10.27
2023-04-15T11:40:53.915Z,10.29
2023-04-15T11:43:22.951Z,10.27
2023-04-15T11:45:58.965Z,10.30
2023-04-15T11:48:27.990Z,10.38
2023-04-15T11:50:57.531Z,10.36
2023-04-15T11:53:26.105Z,10.31
2023-04-15T11:55:53.988Z,10.38
2023-04-15T11:58:23.407Z,10.34
2023-04-15T12:00:52.605Z,10.30
2023-04-15T12:03:30.554Z,10.29
2023-04-15T12:06:08.765Z,10.35
2023-04-15T12:09:06.607Z,10.26
2023-04-15T12:11:40.647Z,10.31
2023-04-15T12:14:12.821Z,10.39
2023-04-15T12:16:50.047Z,10.48
2023-04-15T12:19:24.290Z,10.61
2023-04-15T12:21:51.908Z,10.69
2023-04-15T12:24:21.298Z,10.70
2023-04-15T12:26:49.689Z,10.63
2023-04-15T12:29:17.508Z,10.61
2023-04-15T12:31:52.643Z,10.70
2023-04-15T12:34:29.782Z,10.64
2023-04-15T12:36:58.191Z,10.64
2023-04-15T12:39:25.614Z,10.65
2023-04-15T12:41:53.067Z,10.68
2023-04-15T12:44:20.241Z,10.68
2023-04-15T12:46:47.552Z,10.70
2023-04-15T12:49:16.005Z,10.56
2023-04-15T12:51:42.999Z,10.48
2023-04-15T12:54:09.957Z,10.37
2023-04-15T12:56:39.967Z,10.31
2023-04-15T12:59:07.392Z,10.42
2023-04-15T13:01:34.682Z,10.41
2023-04-15T13:04:02.007Z,10.37
2023-04-15T13:06:29.542Z,10.37
2023-04-15T13:08:58.785Z,10.32
2023-04-15T13:11:26.269Z,10.27
2023-04-15T13:13:53.391Z,10.22
2023-04-15T13:16:20.895Z,10.13
2023-04-15T13:18:48.917Z,10.08
2023-04-15T13:21:16.245Z,9.99
2023-04-15T13:23:43.317Z,9.98
2023-04-15T13:26:10.276Z,10.04
2023-04-15T13:28:37.299Z,10.02
2023-04-15T13:31:05.829Z,9.95
2023-04-15T13:33:32.869Z,9.91
2023-04-15T13:35:59.809Z,9.83
2023-04-15T13:38:26.993Z,9.74
2023-04-15T13:40:54.123Z,9.84
2023-04-15T13:43:21.687Z,9.82
2023-04-15T13:45:48.834Z,9.71
2023-04-15T13:48:16.284Z,9.66
2023-04-15T13:50:45.476Z,9.64
2023-04-15T13:53:13.097Z,9.65
2023-04-15T13:55:43.292Z,9.68
2023-04-15T13:58:10.314Z,9.64
2023-04-15T14:00:37.444Z,9.59
2023-04-15T14:03:04.645Z,9.58
2023-04-15T14:05:32.360Z,9.51
2023-04-15T14:08:00.020Z,9.48
2023-04-15T14:10:27.046Z,9.39
2023-04-15T14:12:54.212Z,9.37
2023-04-15T14:15:21.490Z,9.37
2023-04-15T14:17:48.523Z,9.37
2023-04-15T14:20:17.205Z,9.36
2023-04-15T14:22:44.587Z,9.37
2023-04-15T14:25:17.198Z,9.37
2023-04-15T14:27:50.509Z,9.36
2023-04-15T14:30:17.611Z,9.36
2023-04-15T14:32:44.834Z,9.33
2023-04-15T14:35:11.743Z,9.27
2023-04-15T14:37:38.703Z,9.24
2023-04-15T14:40:06.531Z,9.20
2023-04-15T14:42:33.403Z,9.15
2023-04-15T14:45:00.398Z,9.09
2023-04-15T14:47:27.810Z,9.04
2023-04-15T14:49:54.771Z,8.98
2023-04-15T14:52:21.789Z,8.95
2023-04-15T14:54:48.889Z,8.92
2023-04-15T14:57:16.315Z,8.87
2023-04-15T14:59:43.335Z,8.84
2023-04-15T15:02:11.497Z,8.82
2023-04-15T15:04:40.758Z,8.80
2023-04-15T15:07:07.784Z,8.77
2023-04-15T15:09:35.108Z,8.75
2023-04-15T15:12:02.194Z,8.75
2023-04-15T15:14:29.358Z,8.67
2023-04-15T15:16:56.352Z,8.61
2023-04-15T15:19:24.929Z,8.56
2023-04-15T15:21:51.925Z,8.50
2023-04-15T15:24:18.855Z,8.45
2023-04-15T15:26:45.820Z,8.41
2023-04-15T15:29:12.770Z,8.36
2023-04-15T15:31:39.885Z,8.32
2023-04-15T15:34:07.182Z,8.27
2023-04-15T15:36:34.201Z,8.21
2023-04-15T15:39:01.379Z,8.14
2023-04-15T15:41:28.450Z,8.02
2023-04-15T15:43:55.666Z,7.95
2023-04-15T15:46:24.374Z,7.88
2023-04-15T15:48:51.411Z,7.85
2023-04-15T15:51:18.373Z,7.78
2023-04-15T15:53:45.631Z,7.72
2023-04-15T15:56:12.633Z,7.63
2023-04-15T15:58:39.684Z,7.54
2023-04-15T16:01:06.654Z,7.45
2023-04-15T16:03:33.868Z,7.36
2023-04-15T16:06:01.020Z,7.25
2023-04-15T16:08:28.024Z,7.18
2023-04-15T16:10:55.028Z,7.10
2023-04-15T16:13:22.439Z,7.04
2023-04-15T16:15:52.087Z,7.00
2023-04-15T16:18:19.113Z,6.96
2023-04-15T16:20:46.262Z,6.92
2023-04-15T16:23:16.981Z,6.86
2023-04-15T16:25:44.407Z,6.78
2023-04-15T16:28:25.216Z,6.71
2023-04-15T16:30:53.703Z,6.61
2023-04-15T16:33:20.828Z,6.54
2023-04-15T16:35:47.816Z,6.45
2023-04-15T16:38:14.843Z,6.38
2023-04-15T16:40:42.221Z,6.34
2023-04-15T16:43:11.347Z,6.31
2023-04-15T16:45:38.597Z,6.31
2023-04-15T16:48:06.017Z,6.32
2023-04-15T16:50:32.930Z,6.35
2023-04-15T16:53:00.006Z,6.40
2023-04-15T16:55:27.273Z,6.39
2023-04-15T16:58:02.135Z,6.34
2023-04-15T17:00:36.115Z,6.22
2023-04-15T17:03:03.463Z,6.10
2023-04-15T17:05:33.383Z,5.99
2023-04-15T17:08:00.407Z,5.86
2023-04-15T17:10:27.795Z,5.76
2023-04-15T17:12:56.687Z,5.66
2023-04-15T17:15:24.262Z,5.55
2023-04-15T17:18:08.111Z,5.42
2023-04-15T17:20:38.782Z,5.36
2023-04-15T17:23:07.094Z,5.35
2023-04-15T17:25:35.865Z,5.32
2023-04-15T17:28:06.633Z,5.23
2023-04-15T17:30:36.443Z,5.14
2023-04-15T17:33:57.516Z,5.02
2023-04-15T17:36:31.001Z,4.90
2023-04-15T17:39:17.964Z,4.81
2023-04-15T17:41:44.948Z,4.75
2023-04-15T17:44:31.771Z,4.70
2023-04-15T17:47:18.529Z,4.55
2023-04-15T17:50:11.544Z,4.40
2023-04-15T17:52:58.533Z,4.28
2023-04-15T17:55:46.397Z,4.17
2023-04-15T17:58:33.316Z,4.05
2023-04-15T18:01:22.407Z,3.96
2023-04-15T18:04:09.677Z,3.91
2023-04-15T18:06:56.868Z,3.89
2023-04-15T18:09:44.456Z,3.88
2023-04-15T18:12:31.324Z,3.91
2023-04-15T18:15:18.919Z,3.99
2023-04-15T18:18:06.037Z,3.98
2023-04-15T18:20:33.598Z,3.93
2023-04-15T18:23:01.594Z,3.88
2023-04-15T18:25:30.087Z,3.80
2023-04-15T18:27:57.382Z,3.75
2023-04-15T18:30:24.457Z,3.69
2023-04-15T18:32:51.713Z,3.67
2023-04-15T18:35:19.282Z,3.66
2023-04-15T18:37:46.575Z,3.66
2023-04-15T18:40:15.901Z,3.67
2023-04-15T18:42:43.085Z,3.71
2023-04-15T18:45:10.547Z,3.72
2023-04-15T18:47:37.627Z,3.74
2023-04-15T18:50:05.163Z,3.77
2023-04-15T18:52:33.906Z,3.76
2023-04-15T18:55:03.315Z,3.76
2023-04-15T18:57:33.156Z,3.73
2023-04-15T19:00:02.186Z,3.69
2023-04-15T19:02:33.525Z,3.65
2023-04-15T19:05:04.151Z,3.62
2023-04-15T19:07:32.347Z,3.59
2023-04-15T19:09:59.418Z,3.56
2023-04-15T19:12:26.487Z,3.56
2023-04-15T19:14:53.560Z,3.52
2023-04-15T19:17:20.641Z,3.50
2023-04-15T19:19:47.535Z,3.48
2023-04-15T19:22:14.569Z,3.46
2023-04-15T19:24:41.496Z,3.46
2023-04-15T19:27:08.429Z,3.45
2023-04-15T19:29:35.425Z,3.43
2023-04-15T19:32:02.492Z,3.38
2023-04-15T19:34:29.440Z,3.34
2023-04-15T19:36:56.635Z,3.33
2023-04-15T19:39:23.847Z,3.34
2023-04-15T19:41:51.800Z,3.34
2023-04-15T19:44:20.130Z,3.33
2023-04-15T19:46:50.065Z,3.33
2023-04-15T19:49:17.841Z,3.29
2023-04-15T19:51:44.794Z,3.25
2023-04-15T19:54:11.851Z,3.25
2023-04-15T19:56:38.808Z,3.23
2023-04-15T19:59:06.075Z,3.21
2023-04-15T20:01:33.228Z,3.18
2023-04-15T20:04:00.277Z,3.17
2023-04-15T20:06:27.902Z,3.15
2023-04-15T20:08:54.920Z,3.14
2023-04-15T20:11:22.241Z,3.13
2023-04-15T20:13:49.332Z,3.09
2023-04-15T20:16:16.809Z,3.07
2023-04-15T20:18:43.911Z,3.06
2023-04-15T20:21:10.966Z,3.06
2023-04-15T20:23:38.371Z,3.08
2023-04-15T20:26:05.431Z,3.12
2023-04-15T20:28:32.627Z,3.13
2023-04-15T20:31:02.546Z,3.09
2023-04-15T20:33:29.868Z,3.05
2023-04-15T20:35:56.959Z,2.95
2023-04-15T20:38:23.912Z,2.90
2023-04-15T20:40:51.384Z,2.87
2023-04-15T20:43:18.430Z,2.86
2023-04-15T20:45:45.640Z,2.81
2023-04-15T20:48:12.749Z,2.79
2023-04-15T20:50:39.787Z,2.76
2023-04-15T20:53:06.763Z,2.76
2023-04-15T20:55:33.983Z,2.75
2023-04-15T20:58:01.191Z,2.70
2023-04-15T21:00:28.281Z,2.64
2023-04-15T21:02:55.937Z,2.65
2023-04-15T21:05:23.021Z,2.60
2023-04-15T21:07:50.068Z,2.59
2023-04-15T21:10:16.951Z,2.60
2023-04-15T21:12:44.057Z,2.61
2023-04-15T21:15:11.278Z,2.62
2023-04-15T21:17:38.774Z,2.56
2023-04-15T21:20:06.542Z,2.49
2023-04-15T21:22:33.486Z,2.46
2023-04-15T21:25:00.942Z,2.42
2023-04-15T21:27:27.921Z,2.38
2023-04-15T21:29:55.075Z,2.38
2023-04-15T21:32:22.019Z,2.36
2023-04-15T21:34:49.014Z,2.33
2023-04-15T21:37:16.019Z,2.31
2023-04-15T21:39:43.109Z,2.30
2023-04-15T21:42:10.086Z,2.33
2023-04-15T21:44:37.120Z,2.32
2023-04-15T21:47:04.232Z,2.30
2023-04-15T21:49:31.528Z,2.30
2023-04-15T21:52:01.363Z,2.37
2023-04-15T21:54:28.543Z,2.40
2023-04-15T21:56:57.002Z,2.40
2023-04-15T21:59:24.082Z,2.41
2023-04-15T22:01:51.267Z,2.41
2023-04-15T22:04:18.370Z,2.41
2023-04-15T22:06:45.592Z,2.42
2023-04-15T22:09:14.424Z,2.47
2023-04-15T22:11:41.709Z,2.48
2023-04-15T22:14:09.172Z,2.52
2023-04-15T22:16:36.303Z,2.57
2023-04-15T22:19:03.360Z,2.56
2023-04-15T22:21:30.497Z,2.58
2023-04-15T22:24:38.228Z,2.63
2023-04-15T22:26:44.613Z,2.62
2023-04-15T22:29:11.808Z,2.58
2023-04-15T22:31:38.984Z,2.55
2023-04-15T22:34:05.999Z,2.55
2023-04-15T22:36:33.093Z,2.59
2023-04-15T22:39:00.178Z,2.61
2023-04-15T22:41:27.430Z,2.59
2023-04-15T22:43:54.389Z,2.56
2023-04-15T22:46:21.480Z,2.56
2023-04-15T22:48:48.649Z,2.53
2023-04-15T22:51:21.387Z,2.54
2023-04-15T22:53:48.601Z,2.53
2023-04-15T22:56:15.625Z,2.52
2023-04-15T22:58:42.671Z,2.58
2023-04-15T23:01:09.689Z,2.58
2023-04-15T23:03:55.793Z,2.55
2023-04-15T23:06:23.750Z,2.55
2023-04-15T23:08:51.282Z,2.51
2023-04-15T23:11:18.562Z,2.44
2023-04-15T23:13:45.652Z,2.36
2023-04-15T23:16:12.946Z,2.27
2023-04-15T23:18:39.857Z,2.16
2023-04-15T23:21:06.823Z,2.09
2023-04-15T23:23:33.847Z,2.02
2023-04-15T23:26:01.446Z,1.92
2023-04-15T23:28:28.497Z,1.85
2023-04-15T23:30:56.962Z,1.75
2023-04-15T23:33:25.035Z,1.66
2023-04-15T23:35:52.155Z,1.61
2023-04-15T23:38:19.275Z,1.62
2023-04-15T23:40:46.311Z,1.59
2023-04-15T23:43:13.448Z,1.65
2023-04-15T23:45:40.532Z,1.76
2023-04-15T23:48:07.436Z,1.69
2023-04-15T23:50:34.451Z,1.55
2023-04-15T23:53:02.036Z,1.46
2023-04-15T23:55:29.558Z,1.41
2023-04-15T23:57:56.651Z,1.37
